createdAt,value
2018-02-08T00:00:42.739Z,805.65
2018-02-08T00:01:42.746Z,805.62
2018-02-08T00:02:42.741Z,805.64
2018-02-08T00:03:42.742Z,805.66
2018-02-08T00:04:42.746Z,805.61
2018-02-08T00:05:42.750Z,805.62
2018-02-08T00:06:42.748Z,805.66
2018-02-08T00:07:42.752Z,805.62
2018-02-08T00:08:42.754Z,805.63
2018-02-08T00:09:42.755Z,805.63
2018-02-08T00:10:42.755Z,805.61
2018-02-08T00:11:42.757Z,805.61
2018-02-08T00:12:42.754Z,805.58
2018-02-08T00:13:42.756Z,805.61
2018-02-08T00:14:42.759Z,805.62
2018-02-08T00:15:42.761Z,805.59
2018-02-08T00:16:42.759Z,805.63
2018-02-08T00:17:42.757Z,805.61
2018-02-08T00:18:42.759Z,805.61
2018-02-08T00:19:42.766Z,805.61
2018-02-08T00:20:42.767Z,805.61
2018-02-08T00:21:42.764Z,805.60
2018-02-08T00:22:42.769Z,805.63
2018-02-08T00:23:42.764Z,805.63
2018-02-08T00:24:42.770Z,805.64
2018-02-08T00:25:42.766Z,805.63
2018-02-08T00:26:42.771Z,805.63
2018-02-08T00:27:42.772Z,805.66
2018-02-08T00:28:42.780Z,805.66
2018-02-08T00:29:42.777Z,805.64
2018-02-08T00:30:42.772Z,805.67
2018-02-08T00:31:42.778Z,805.65
2018-02-08T00:32:42.774Z,805.67
2018-02-08T00:33:42.775Z,805.68
2018-02-08T00:34:42.780Z,805.67
2018-02-08T00:35:42.783Z,805.69
2018-02-08T00:36:42.780Z,805.71
2018-02-08T00:37:42.779Z,805.68
2018-02-08T00:38:42.783Z,805.69
2018-02-08T00:39:42.786Z,805.69
2018-02-08T00:40:42.788Z,805.72
2018-02-08T00:41:42.790Z,805.73
2018-02-08T00:42:42.789Z,805.75
2018-02-08T00:43:42.788Z,805.78
2018-02-08T00:44:42.787Z,805.75
2018-02-08T00:45:42.788Z,805.75
2018-02-08T00:46:42.789Z,805.74
2018-02-08T00:47:42.796Z,805.75
2018-02-08T00:48:42.793Z,805.76
2018-02-08T00:49:42.803Z,805.78
2018-02-08T00:50:42.800Z,805.76
2018-02-08T00:51:42.801Z,805.78
2018-02-08T00:52:42.808Z,805.81
2018-02-08T00:53:42.802Z,805.79
2018-02-08T00:54:42.798Z,805.79
2018-02-08T00:55:42.800Z,805.80
2018-02-08T00:56:42.807Z,805.76
2018-02-08T00:57:42.809Z,805.77
2018-02-08T00:58:42.801Z,805.85
2018-02-08T00:59:42.805Z,805.80
2018-02-08T01:00:42.811Z,805.82
2018-02-08T01:01:42.814Z,805.86
2018-02-08T01:02:42.808Z,805.85
2018-02-08T01:03:42.809Z,805.80
2018-02-08T01:04:42.810Z,805.81
2018-02-08T01:05:42.819Z,805.81
2018-02-08T01:06:42.818Z,805.79
2018-02-08T01:07:42.820Z,805.80
2018-02-08T01:08:42.820Z,805.81
2018-02-08T01:09:42.817Z,805.83
2018-02-08T01:10:42.823Z,805.85
2018-02-08T01:11:42.820Z,805.84
2018-02-08T01:12:42.827Z,805.84
2018-02-08T01:13:42.823Z,805.89
2018-02-08T01:14:42.829Z,805.91
2018-02-08T01:15:42.828Z,805.90
2018-02-08T01:16:42.831Z,805.89
2018-02-08T01:17:42.834Z,805.90
2018-02-08T01:18:42.828Z,805.89
2018-02-08T01:19:42.830Z,805.93
2018-02-08T01:20:42.836Z,805.89
2018-02-08T01:21:42.840Z,805.92
2018-02-08T01:22:42.840Z,805.88
2018-02-08T01:23:42.839Z,805.91
2018-02-08T01:24:42.842Z,805.88
2018-02-08T01:25:42.838Z,805.90
2018-02-08T01:26:42.845Z,805.88
2018-02-08T01:27:42.845Z,805.93
2018-02-08T01:28:42.842Z,805.90
2018-02-08T01:29:42.843Z,805.96
2018-02-08T01:30:42.843Z,805.93
2018-02-08T01:31:42.850Z,805.90
2018-02-08T01:32:42.846Z,805.91
2018-02-08T01:33:42.855Z,805.91
2018-02-08T01:34:42.855Z,805.91
2018-02-08T01:35:42.861Z,805.92
2018-02-08T01:36:42.860Z,805.91
2018-02-08T01:37:42.857Z,805.87
2018-02-08T01:38:42.860Z,805.89
2018-02-08T01:39:42.860Z,805.87
2018-02-08T01:40:42.855Z,805.90
2018-02-08T01:41:42.858Z,805.90
2018-02-08T01:42:42.865Z,805.89
2018-02-08T01:43:42.865Z,805.88
2018-02-08T01:44:42.860Z,805.83
2018-02-08T01:45:42.869Z,805.86
2018-02-08T01:46:42.868Z,805.86
2018-02-08T01:47:42.864Z,805.88
2018-02-08T01:48:42.871Z,805.84
2018-02-08T01:49:42.872Z,805.84
2018-02-08T01:50:42.875Z,805.90
2018-02-08T01:51:42.874Z,805.87
2018-02-08T01:52:42.879Z,805.85
2018-02-08T01:53:42.872Z,805.85
2018-02-08T01:54:42.872Z,805.87
2018-02-08T01:55:42.876Z,805.86
2018-02-08T01:56:42.881Z,805.83
2018-02-08T01:57:42.890Z,805.82
2018-02-08T01:58:42.878Z,805.81
2018-02-08T01:59:42.886Z,805.84
2018-02-08T02:00:42.886Z,805.79
2018-02-08T02:01:42.882Z,805.82
2018-02-08T02:02:42.892Z,805.80
2018-02-08T02:03:42.892Z,805.79
2018-02-08T02:04:42.886Z,805.77
2018-02-08T02:05:42.889Z,805.80
2018-02-08T02:06:42.887Z,805.81
2018-02-08T02:07:42.890Z,805.76
2018-02-08T02:08:42.897Z,805.77
2018-02-08T02:09:42.898Z,805.79
2018-02-08T02:10:42.893Z,805.78
2018-02-08T02:11:42.895Z,805.77
2018-02-08T02:12:42.901Z,805.77
2018-02-08T02:13:42.896Z,805.77
2018-02-08T02:14:42.904Z,805.78
2018-02-08T02:15:42.901Z,805.76
2018-02-08T02:16:42.903Z,805.77
2018-02-08T02:17:42.909Z,805.78
2018-02-08T02:18:42.920Z,805.77
2018-02-08T02:19:42.911Z,805.76
2018-02-08T02:20:42.913Z,805.79
2018-02-08T02:21:42.913Z,805.77
2018-02-08T02:22:42.912Z,805.75
2018-02-08T02:23:42.911Z,805.75
2018-02-08T02:24:42.915Z,805.76
2018-02-08T02:25:42.919Z,805.76
2018-02-08T02:26:42.916Z,805.84
2018-02-08T02:27:42.921Z,805.81
2018-02-08T02:28:42.919Z,805.79
2018-02-08T02:29:42.920Z,805.79
2018-02-08T02:30:42.926Z,805.77
2018-02-08T02:31:42.927Z,805.76
2018-02-08T02:32:42.925Z,805.79
2018-02-08T02:33:42.931Z,805.78
2018-02-08T02:34:42.927Z,805.80
2018-02-08T02:35:42.933Z,805.74
2018-02-08T02:36:42.932Z,805.72
2018-02-08T02:37:42.938Z,805.70
2018-02-08T02:38:42.938Z,805.74
2018-02-08T02:39:42.933Z,805.75
2018-02-08T02:40:42.936Z,805.75
2018-02-08T02:41:42.944Z,805.77
2018-02-08T02:42:42.938Z,805.76
2018-02-08T02:43:42.944Z,805.76
2018-02-08T02:44:42.950Z,805.74
2018-02-08T02:45:42.942Z,805.73
2018-02-08T02:46:42.949Z,805.73
2018-02-08T02:47:42.945Z,805.70
2018-02-08T02:48:42.947Z,805.74
2018-02-08T02:49:42.953Z,805.71
2018-02-08T02:50:42.953Z,805.74
2018-02-08T02:51:42.955Z,805.69
2018-02-08T02:52:42.960Z,805.67
2018-02-08T02:53:42.953Z,805.70
2018-02-08T02:54:42.960Z,805.69
2018-02-08T02:55:42.960Z,805.68
2018-02-08T02:56:42.961Z,805.67
2018-02-08T02:57:42.958Z,805.69
2018-02-08T02:58:42.959Z,805.67
2018-02-08T02:59:42.966Z,805.70
2018-02-08T03:00:42.968Z,805.69
2018-02-08T03:01:42.970Z,805.69
2018-02-08T03:02:42.963Z,805.71
2018-02-08T03:03:42.964Z,805.73
2018-02-08T03:04:42.971Z,805.73
2018-02-08T03:05:42.972Z,805.73
2018-02-08T03:06:42.972Z,805.74
2018-02-08T03:07:42.967Z,805.70
2018-02-08T03:08:42.969Z,805.72
2018-02-08T03:09:42.975Z,805.71
2018-02-08T03:10:43.301Z,805.71
2018-02-08T03:11:42.973Z,805.70
2018-02-08T03:12:42.979Z,805.67
2018-02-08T03:13:42.975Z,805.68
2018-02-08T03:14:42.983Z,805.69
2018-02-08T03:15:42.993Z,805.73
2018-02-08T03:16:42.977Z,805.72
2018-02-08T03:17:42.984Z,805.73
2018-02-08T03:18:42.979Z,805.72
2018-02-08T03:19:42.981Z,805.76
2018-02-08T03:20:42.982Z,805.75
2018-02-08T03:21:42.989Z,805.73
2018-02-08T03:22:42.989Z,805.76
2018-02-08T03:23:42.985Z,805.74
2018-02-08T03:24:42.986Z,805.75
2018-02-08T03:25:42.988Z,805.77
2018-02-08T03:26:42.992Z,805.80
2018-02-08T03:27:42.995Z,805.79
2018-02-08T03:28:42.990Z,805.81
2018-02-08T03:29:42.989Z,805.80
2018-02-08T03:30:42.993Z,805.79
2018-02-08T03:31:42.998Z,805.79
2018-02-08T03:32:42.996Z,805.74
2018-02-08T03:33:43.001Z,805.74
2018-02-08T03:34:42.996Z,805.72
2018-02-08T03:35:43.002Z,805.71
2018-02-08T03:36:42.999Z,805.73
2018-02-08T03:37:43.000Z,805.73
2018-02-08T03:38:42.999Z,805.72
2018-02-08T03:39:43.008Z,805.72
2018-02-08T03:40:43.010Z,805.74
2018-02-08T03:41:43.010Z,805.75
2018-02-08T03:42:43.005Z,805.77
2018-02-08T03:43:43.012Z,805.78
2018-02-08T03:44:43.013Z,805.78
2018-02-08T03:45:43.012Z,805.76
2018-02-08T03:46:43.010Z,805.77
2018-02-08T03:47:43.013Z,805.78
2018-02-08T03:48:43.018Z,805.79
2018-02-08T03:49:43.019Z,805.76
2018-02-08T03:50:43.015Z,805.74
2018-02-08T03:51:43.017Z,805.77
2018-02-08T03:52:43.018Z,805.76
2018-02-08T03:53:43.025Z,805.77
2018-02-08T03:54:43.027Z,805.80
2018-02-08T03:55:43.028Z,805.77
2018-02-08T03:56:43.022Z,805.78
2018-02-08T03:57:43.025Z,805.82
2018-02-08T03:58:43.030Z,805.82
2018-02-08T03:59:43.036Z,805.82
2018-02-08T04:00:43.027Z,805.84
2018-02-08T04:01:43.035Z,805.83
2018-02-08T04:02:43.039Z,805.85
2018-02-08T04:03:43.037Z,805.83
2018-02-08T04:04:43.039Z,805.83
2018-02-08T04:05:43.033Z,805.82
2018-02-08T04:06:43.041Z,805.83
2018-02-08T04:07:43.039Z,805.87
2018-02-08T04:08:43.037Z,805.89
2018-02-08T04:09:43.043Z,805.90
2018-02-08T04:10:43.039Z,805.90
2018-02-08T04:11:43.040Z,805.92
2018-02-08T04:12:43.048Z,805.94
2018-02-08T04:13:43.048Z,805.92
2018-02-08T04:14:43.050Z,805.98
2018-02-08T04:15:43.051Z,805.96
2018-02-08T04:16:43.046Z,805.93
2018-02-08T04:17:43.049Z,805.92
2018-02-08T04:18:43.053Z,805.96
2018-02-08T04:19:43.051Z,805.95
2018-02-08T04:20:43.054Z,805.96
2018-02-08T04:21:43.053Z,805.93
2018-02-08T04:22:43.053Z,805.95
2018-02-08T04:23:43.053Z,805.93
2018-02-08T04:24:43.055Z,805.93
2018-02-08T04:25:43.055Z,805.97
2018-02-08T04:26:43.061Z,805.96
2018-02-08T04:27:43.057Z,805.97
2018-02-08T04:28:43.081Z,805.98
2018-02-08T04:29:43.061Z,806.01
2018-02-08T04:30:43.065Z,806.02
2018-02-08T04:31:43.067Z,806.02
2018-02-08T04:32:43.063Z,806.01
2018-02-08T04:33:43.067Z,806.01
2018-02-08T04:34:43.070Z,806.05
2018-02-08T04:35:43.075Z,806.04
2018-02-08T04:36:43.073Z,806.09
2018-02-08T04:37:43.069Z,806.07
2018-02-08T04:38:43.069Z,806.06
2018-02-08T04:39:43.072Z,806.08
2018-02-08T04:40:43.078Z,806.10
2018-02-08T04:41:43.074Z,806.09
2018-02-08T04:42:43.080Z,806.09
2018-02-08T04:43:43.075Z,806.11
2018-02-08T04:44:43.077Z,806.06
2018-02-08T04:45:43.078Z,806.06
2018-02-08T04:46:43.083Z,806.10
2018-02-08T04:47:43.086Z,806.08
2018-02-08T04:48:43.080Z,806.07
2018-02-08T04:49:43.088Z,806.12
2018-02-08T04:50:43.088Z,806.10
2018-02-08T04:51:43.084Z,806.11
2018-02-08T04:52:43.088Z,806.14
2018-02-08T04:53:43.096Z,806.15
2018-02-08T04:54:43.088Z,806.14
2018-02-08T04:55:43.090Z,806.17
2018-02-08T04:56:43.096Z,806.15
2018-02-08T04:57:43.097Z,806.20
2018-02-08T04:58:43.092Z,806.20
2018-02-08T04:59:43.092Z,806.18
2018-02-08T05:00:43.099Z,806.21
2018-02-08T05:01:43.108Z,806.20
2018-02-08T05:02:43.103Z,806.23
2018-02-08T05:03:43.103Z,806.23
2018-02-08T05:04:43.106Z,806.24
2018-02-08T05:05:43.101Z,806.22
2018-02-08T05:06:43.100Z,806.23
2018-02-08T05:07:43.108Z,806.20
2018-02-08T05:08:43.103Z,806.23
2018-02-08T05:09:43.104Z,806.20
2018-02-08T05:10:43.104Z,806.24
2018-02-08T05:11:43.110Z,806.25
2018-02-08T05:12:43.108Z,806.24
2018-02-08T05:13:43.116Z,806.30
2018-02-08T05:14:43.114Z,806.24
2018-02-08T05:15:43.111Z,806.25
2018-02-08T05:16:43.128Z,806.28
2018-02-08T05:17:43.121Z,806.31
2018-02-08T05:18:43.119Z,806.29
2018-02-08T05:19:43.120Z,806.40
2018-02-08T05:20:43.116Z,806.35
2018-02-08T05:21:43.118Z,806.34
2018-02-08T05:22:43.124Z,806.35
2018-02-08T05:23:43.119Z,806.32
2018-02-08T05:24:43.125Z,806.35
2018-02-08T05:25:43.126Z,806.36
2018-02-08T05:26:43.127Z,806.35
2018-02-08T05:27:43.125Z,806.32
2018-02-08T05:28:43.130Z,806.33
2018-02-08T05:29:43.127Z,806.37
2018-02-08T05:30:43.132Z,806.34
2018-02-08T05:31:43.136Z,806.35
2018-02-08T05:32:43.128Z,806.32
2018-02-08T05:33:44.193Z,806.35
2018-02-08T05:34:43.130Z,806.41
2018-02-08T05:35:44.194Z,806.38
2018-02-08T05:36:43.143Z,806.39
2018-02-08T05:37:43.140Z,806.38
2018-02-08T05:38:43.135Z,806.43
2018-02-08T05:39:43.140Z,806.43
2018-02-08T05:40:43.142Z,806.38
2018-02-08T05:41:43.138Z,806.36
2018-02-08T05:42:43.139Z,806.40
2018-02-08T05:43:43.145Z,806.41
2018-02-08T05:44:43.140Z,806.40
2018-02-08T05:45:43.147Z,806.42
2018-02-08T05:46:43.146Z,806.43
2018-02-08T05:47:43.149Z,806.44
2018-02-08T05:48:43.151Z,806.42
2018-02-08T05:49:43.146Z,806.46
2018-02-08T05:50:43.144Z,806.44
2018-02-08T05:51:43.152Z,806.46
2018-02-08T05:52:43.202Z,806.47
2018-02-08T05:53:43.157Z,806.47
2018-02-08T05:54:43.149Z,806.48
2018-02-08T05:55:43.151Z,806.47
2018-02-08T05:56:43.153Z,806.45
2018-02-08T05:57:43.155Z,806.47
2018-02-08T05:58:43.160Z,806.46
2018-02-08T05:59:43.160Z,806.43
2018-02-08T06:00:43.156Z,806.44
2018-02-08T06:01:43.157Z,806.46
2018-02-08T06:02:43.163Z,806.49
2018-02-08T06:03:43.165Z,806.49
2018-02-08T06:04:43.165Z,806.51
2018-02-08T06:05:43.164Z,806.55
2018-02-08T06:06:43.176Z,806.51
2018-02-08T06:07:43.163Z,806.53
2018-02-08T06:08:43.170Z,806.59
2018-02-08T06:09:43.167Z,806.59
2018-02-08T06:10:43.171Z,806.61
2018-02-08T06:11:43.170Z,806.61
2018-02-08T06:12:43.179Z,806.62
2018-02-08T06:13:43.171Z,806.63
2018-02-08T06:14:43.176Z,806.61
2018-02-08T06:15:43.175Z,806.60
2018-02-08T06:16:43.178Z,806.60
2018-02-08T06:17:43.172Z,806.61
2018-02-08T06:18:43.178Z,806.61
2018-02-08T06:19:43.175Z,806.66
2018-02-08T06:20:43.181Z,806.64
2018-02-08T06:21:43.187Z,806.69
2018-02-08T06:22:43.182Z,806.66
2018-02-08T06:23:43.178Z,806.67
2018-02-08T06:24:43.186Z,806.66
2018-02-08T06:25:43.181Z,806.64
2018-02-08T06:26:43.190Z,806.70
2018-02-08T06:27:43.181Z,806.68
2018-02-08T06:28:43.189Z,806.69
2018-02-08T06:29:43.186Z,806.71
2018-02-08T06:30:43.186Z,806.72
2018-02-08T06:31:43.187Z,806.70
2018-02-08T06:32:43.193Z,806.70
2018-02-08T06:33:43.188Z,806.72
2018-02-08T06:34:43.188Z,806.76
2018-02-08T06:35:43.199Z,806.77
2018-02-08T06:36:43.197Z,806.74
2018-02-08T06:37:43.194Z,806.75
2018-02-08T06:38:43.198Z,806.76
2018-02-08T06:39:43.199Z,806.81
2018-02-08T06:40:43.197Z,806.80
2018-02-08T06:41:43.200Z,806.82
2018-02-08T06:42:43.198Z,806.84
2018-02-08T06:43:43.198Z,806.86
2018-02-08T06:44:43.206Z,806.87
2018-02-08T06:45:43.202Z,806.86
2018-02-08T06:46:43.235Z,806.89
2018-02-08T06:47:43.208Z,806.91
2018-02-08T06:48:43.208Z,806.92
2018-02-08T06:49:43.205Z,806.89
2018-02-08T06:50:43.209Z,806.95
2018-02-08T06:51:43.207Z,806.94
2018-02-08T06:52:43.214Z,806.93
2018-02-08T06:53:43.208Z,806.98
2018-02-08T06:54:43.208Z,806.96
2018-02-08T06:55:43.215Z,807.01
2018-02-08T06:56:43.218Z,807.02
2018-02-08T06:57:43.218Z,807.02
2018-02-08T06:58:43.214Z,807.03
2018-02-08T06:59:43.220Z,806.99
2018-02-08T07:00:43.222Z,807.01
2018-02-08T07:01:43.222Z,806.99
2018-02-08T07:02:43.222Z,806.99
2018-02-08T07:03:43.224Z,807.05
2018-02-08T07:04:43.220Z,807.04
2018-02-08T07:05:43.227Z,807.09
2018-02-08T07:06:43.227Z,807.09
2018-02-08T07:07:43.225Z,807.07
2018-02-08T07:08:43.229Z,807.09
2018-02-08T07:09:43.226Z,807.08
2018-02-08T07:10:43.232Z,807.09
2018-02-08T07:11:43.233Z,807.14
2018-02-08T07:12:43.233Z,807.11
2018-02-08T07:13:43.230Z,807.15
2018-02-08T07:14:43.236Z,807.16
2018-02-08T07:15:43.238Z,807.12
2018-02-08T07:16:43.238Z,807.16
2018-02-08T07:17:43.235Z,807.15
2018-02-08T07:18:43.243Z,807.18
2018-02-08T07:19:43.237Z,807.16
2018-02-08T07:20:43.236Z,807.17
2018-02-08T07:21:43.244Z,807.18
2018-02-08T07:22:43.245Z,807.21
2018-02-08T07:23:43.247Z,807.22
2018-02-08T07:24:43.242Z,807.23
2018-02-08T07:25:43.247Z,807.25
2018-02-08T07:26:43.252Z,807.22
2018-02-08T07:27:43.257Z,807.27
2018-02-08T07:28:43.249Z,807.28
2018-02-08T07:29:43.245Z,807.26
2018-02-08T07:30:43.256Z,807.29
2018-02-08T07:31:43.249Z,807.28
2018-02-08T07:32:43.256Z,807.25
2018-02-08T07:33:43.257Z,807.29
2018-02-08T07:34:43.253Z,807.28
2018-02-08T07:35:43.254Z,807.28
2018-02-08T07:36:43.260Z,807.35
2018-02-08T07:37:43.261Z,807.33
2018-02-08T07:38:43.260Z,807.35
2018-02-08T07:39:43.262Z,807.33
2018-02-08T07:40:43.263Z,807.33
2018-02-08T07:41:43.264Z,807.35
2018-02-08T07:42:43.259Z,807.35
2018-02-08T07:43:43.260Z,807.35
2018-02-08T07:44:43.260Z,807.34
2018-02-08T07:45:43.269Z,807.34
2018-02-08T07:46:43.268Z,807.37
2018-02-08T07:47:43.265Z,807.38
2018-02-08T07:48:43.264Z,807.36
2018-02-08T07:49:43.266Z,807.36
2018-02-08T07:50:43.271Z,807.37
2018-02-08T07:51:43.268Z,807.41
2018-02-08T07:52:43.271Z,807.41
2018-02-08T07:53:43.277Z,807.42
2018-02-08T07:54:43.271Z,807.38
2018-02-08T07:55:43.277Z,807.44
2018-02-08T07:56:43.280Z,807.45
2018-02-08T07:57:43.275Z,807.44
2018-02-08T07:58:43.279Z,807.44
2018-02-08T07:59:43.283Z,807.48
2018-02-08T08:00:43.277Z,807.47
2018-02-08T08:01:43.280Z,807.46
2018-02-08T08:02:43.282Z,807.44
2018-02-08T08:03:43.288Z,807.41
2018-02-08T08:04:43.289Z,807.40
2018-02-08T08:05:43.289Z,807.38
2018-02-08T08:06:43.285Z,807.42
2018-02-08T08:07:43.316Z,807.42
2018-02-08T08:08:43.287Z,807.41
2018-02-08T08:09:43.294Z,807.40
2018-02-08T08:10:43.294Z,807.42
2018-02-08T08:11:43.296Z,807.39
2018-02-08T08:12:43.297Z,807.42
2018-02-08T08:13:43.298Z,807.44
2018-02-08T08:14:43.300Z,807.42
2018-02-08T08:15:43.295Z,807.42
2018-02-08T08:16:43.296Z,807.44
2018-02-08T08:17:43.297Z,807.42
2018-02-08T08:18:43.303Z,807.43
2018-02-08T08:19:43.300Z,807.40
2018-02-08T08:20:43.304Z,807.39
2018-02-08T08:21:43.305Z,807.42
2018-02-08T08:22:43.308Z,807.44
2018-02-08T08:23:43.308Z,807.44
2018-02-08T08:24:43.302Z,807.43
2018-02-08T08:25:43.308Z,807.45
2018-02-08T08:26:43.310Z,807.46
2018-02-08T08:27:43.305Z,807.48
2018-02-08T08:28:43.307Z,807.48
2018-02-08T08:29:43.307Z,807.52
2018-02-08T08:30:43.309Z,807.52
2018-02-08T08:31:43.313Z,807.49
2018-02-08T08:32:43.311Z,807.54
2018-02-08T08:33:43.311Z,807.55
2018-02-08T08:34:43.315Z,807.52
2018-02-08T08:35:43.315Z,807.50
2018-02-08T08:36:43.314Z,807.51
2018-02-08T08:37:43.327Z,807.48
2018-02-08T08:38:43.314Z,807.51
2018-02-08T08:39:43.317Z,807.47
2018-02-08T08:40:43.319Z,807.50
2018-02-08T08:41:43.319Z,807.50
2018-02-08T08:42:43.319Z,807.47
2018-02-08T08:43:43.327Z,807.54
2018-02-08T08:44:43.322Z,807.49
2018-02-08T08:45:43.330Z,807.49
2018-02-08T08:46:43.328Z,807.49
2018-02-08T08:47:43.331Z,807.47
2018-02-08T08:48:43.329Z,807.50
2018-02-08T08:49:43.331Z,807.51
2018-02-08T08:50:43.337Z,807.52
2018-02-08T08:51:43.332Z,807.53
2018-02-08T08:52:43.336Z,807.57
2018-02-08T08:53:43.331Z,807.58
2018-02-08T08:54:43.331Z,807.57
2018-02-08T08:55:43.336Z,807.55
2018-02-08T08:56:43.332Z,807.60
2018-02-08T08:57:43.340Z,807.58
2018-02-08T08:58:43.334Z,807.64
2018-02-08T08:59:43.334Z,807.61
2018-02-08T09:00:43.342Z,807.60
2018-02-08T09:01:43.347Z,807.63
2018-02-08T09:02:43.338Z,807.61
2018-02-08T09:03:43.341Z,807.60
2018-02-08T09:04:43.344Z,807.58
2018-02-08T09:05:43.348Z,807.61
2018-02-08T09:06:43.342Z,807.67
2018-02-08T09:07:43.348Z,807.64
2018-02-08T09:08:43.351Z,807.64
2018-02-08T09:09:43.350Z,807.63
2018-02-08T09:10:43.351Z,807.68
2018-02-08T09:11:43.347Z,807.67
2018-02-08T09:12:43.348Z,807.67
2018-02-08T09:13:43.350Z,807.69
2018-02-08T09:14:43.355Z,807.71
2018-02-08T09:15:43.351Z,807.69
2018-02-08T09:16:43.359Z,807.69
2018-02-08T09:17:43.355Z,807.68
2018-02-08T09:18:43.359Z,807.67
2018-02-08T09:19:43.356Z,807.69
2018-02-08T09:20:43.357Z,807.71
2018-02-08T09:21:43.368Z,807.70
2018-02-08T09:22:43.370Z,807.68
2018-02-08T09:23:43.360Z,807.68
2018-02-08T09:24:43.369Z,807.69
2018-02-08T09:25:43.361Z,807.72
2018-02-08T09:26:43.368Z,807.73
2018-02-08T09:27:43.364Z,807.74
2018-02-08T09:28:43.372Z,807.74
2018-02-08T09:29:43.373Z,807.78
2018-02-08T09:30:43.373Z,807.78
2018-02-08T09:31:43.376Z,807.77
2018-02-08T09:32:43.377Z,807.78
2018-02-08T09:33:43.373Z,807.82
2018-02-08T09:34:43.379Z,807.83
2018-02-08T09:35:43.381Z,807.84
2018-02-08T09:36:43.375Z,807.82
2018-02-08T09:37:43.377Z,807.86
2018-02-08T09:38:43.383Z,807.85
2018-02-08T09:39:43.388Z,807.87
2018-02-08T09:40:43.389Z,807.84
2018-02-08T09:41:43.414Z,807.87
2018-02-08T09:42:43.387Z,807.91
2018-02-08T09:43:43.389Z,807.90
2018-02-08T09:44:43.385Z,807.92
2018-02-08T09:45:43.392Z,807.91
2018-02-08T09:46:43.392Z,807.93
2018-02-08T09:47:43.393Z,807.94
2018-02-08T09:48:43.401Z,807.96
2018-02-08T09:49:43.392Z,807.95
2018-02-08T09:50:43.397Z,807.96
2018-02-08T09:51:43.398Z,807.91
2018-02-08T09:52:43.395Z,807.98
2018-02-08T09:53:43.403Z,807.92
2018-02-08T09:54:43.398Z,807.92
2018-02-08T09:55:43.398Z,807.95
2018-02-08T09:56:43.407Z,808.00
2018-02-08T09:57:43.403Z,808.03
2018-02-08T09:58:43.409Z,807.99
2018-02-08T09:59:43.404Z,808.01
2018-02-08T10:00:43.414Z,808.02
2018-02-08T10:01:43.413Z,808.07
2018-02-08T10:02:43.416Z,808.03
2018-02-08T10:03:43.416Z,808.04
2018-02-08T10:04:43.419Z,808.10
2018-02-08T10:05:43.421Z,808.07
2018-02-08T10:06:43.416Z,808.03
2018-02-08T10:07:43.424Z,808.04
2018-02-08T10:08:43.420Z,808.06
2018-02-08T10:09:43.422Z,808.03
2018-02-08T10:10:43.429Z,808.05
2018-02-08T10:11:43.424Z,808.04
2018-02-08T10:12:43.431Z,808.05
2018-02-08T10:13:43.430Z,808.04
2018-02-08T10:14:43.434Z,808.06
2018-02-08T10:15:43.439Z,808.06
2018-02-08T10:16:43.438Z,808.04
2018-02-08T10:17:43.439Z,808.05
2018-02-08T10:18:43.439Z,808.05
2018-02-08T10:19:43.440Z,808.08
2018-02-08T10:20:43.440Z,808.05
2018-02-08T10:21:43.448Z,808.09
2018-02-08T10:22:43.454Z,808.07
2018-02-08T10:23:43.455Z,808.06
2018-02-08T10:24:43.453Z,808.06
2018-02-08T10:25:43.455Z,808.04
2018-02-08T10:26:43.457Z,808.08
2018-02-08T10:27:43.458Z,808.09
2018-02-08T10:28:43.460Z,808.09
2018-02-08T10:29:43.463Z,808.07
2018-02-08T10:30:43.463Z,808.08
2018-02-08T10:31:43.466Z,808.08
2018-02-08T10:32:43.463Z,808.07
2018-02-08T10:33:43.465Z,808.07
2018-02-08T10:34:43.475Z,808.07
2018-02-08T10:35:43.472Z,808.04
2018-02-08T10:36:43.476Z,808.05
2018-02-08T10:37:43.473Z,808.06
2018-02-08T10:38:43.479Z,808.07
2018-02-08T10:39:43.476Z,808.08
2018-02-08T10:40:43.482Z,808.04
2018-02-08T10:41:43.536Z,808.03
2018-02-08T10:42:43.482Z,808.05
2018-02-08T10:43:43.490Z,808.04
2018-02-08T10:44:43.484Z,807.99
2018-02-08T10:45:43.492Z,807.98
2018-02-08T10:46:43.488Z,808.01
2018-02-08T10:47:43.495Z,807.96
2018-02-08T10:48:43.499Z,807.99
2018-02-08T10:49:43.497Z,808.00
2018-02-08T10:50:43.496Z,807.98
2018-02-08T10:51:43.505Z,807.95
2018-02-08T10:52:43.503Z,807.93
2018-02-08T10:53:43.504Z,807.96
2018-02-08T10:54:43.503Z,807.94
2018-02-08T10:55:43.507Z,807.95
2018-02-08T10:56:43.517Z,807.93
2018-02-08T10:57:43.516Z,807.92
2018-02-08T10:58:43.513Z,807.90
2018-02-08T10:59:43.515Z,807.88
2018-02-08T11:00:43.525Z,807.88
2018-02-08T11:01:43.526Z,807.90
2018-02-08T11:02:43.527Z,807.88
2018-02-08T11:03:43.528Z,807.90
2018-02-08T11:04:43.530Z,807.89
2018-02-08T11:05:43.528Z,807.89
2018-02-08T11:06:43.531Z,807.90
2018-02-08T11:07:43.531Z,807.88
2018-02-08T11:08:43.537Z,807.93
2018-02-08T11:09:43.547Z,807.89
2018-02-08T11:10:43.539Z,807.91
2018-02-08T11:11:43.543Z,807.93
2018-02-08T11:12:43.551Z,807.94
2018-02-08T11:13:43.547Z,807.94
2018-02-08T11:14:43.549Z,807.96
2018-02-08T11:15:43.562Z,807.94
2018-02-08T11:16:43.560Z,807.92
2018-02-08T11:17:43.564Z,807.96
2018-02-08T11:18:43.559Z,807.94
2018-02-08T11:19:43.594Z,807.92
2018-02-08T11:20:43.566Z,807.94
2018-02-08T11:21:43.573Z,807.90
2018-02-08T11:22:43.571Z,807.93
2018-02-08T11:23:43.579Z,807.89
2018-02-08T11:24:43.580Z,807.93
2018-02-08T11:25:43.578Z,807.93
2018-02-08T11:26:43.579Z,807.93
2018-02-08T11:27:43.589Z,807.93
2018-02-08T11:28:43.585Z,807.90
2018-02-08T11:29:43.588Z,807.90
2018-02-08T11:30:43.594Z,807.92
2018-02-08T11:31:43.603Z,807.87
2018-02-08T11:32:43.595Z,807.93
2018-02-08T11:33:43.598Z,807.93
2018-02-08T11:34:43.605Z,807.91
2018-02-08T11:35:43.608Z,807.88
2018-02-08T11:36:43.606Z,807.89
2018-02-08T11:37:43.613Z,807.92
2018-02-08T11:38:43.610Z,807.93
2018-02-08T11:39:43.612Z,807.88
2018-02-08T11:40:43.616Z,807.90
2018-02-08T11:41:43.620Z,807.90
2018-02-08T11:42:43.616Z,807.87
2018-02-08T11:43:43.625Z,807.88
2018-02-08T11:44:43.625Z,807.89
2018-02-08T11:45:43.631Z,807.91
2018-02-08T11:46:43.627Z,807.90
2018-02-08T11:47:43.634Z,807.86
2018-02-08T11:48:43.632Z,807.88
2018-02-08T11:49:43.639Z,807.87
2018-02-08T11:50:43.642Z,807.86
2018-02-08T11:51:43.639Z,807.84
2018-02-08T11:52:43.641Z,807.84
2018-02-08T11:53:43.646Z,807.81
2018-02-08T11:54:43.646Z,807.83
2018-02-08T11:55:43.648Z,807.85
2018-02-08T11:56:43.655Z,807.89
2018-02-08T11:57:43.660Z,807.88
2018-02-08T11:58:43.655Z,807.89
2018-02-08T11:59:43.659Z,807.92
2018-02-08T12:00:43.667Z,807.91
2018-02-08T12:01:43.673Z,807.95
2018-02-08T12:02:43.670Z,807.91
2018-02-08T12:03:43.675Z,807.85
2018-02-08T12:04:43.678Z,807.91
2018-02-08T12:05:43.674Z,807.91
2018-02-08T12:06:43.676Z,807.97
2018-02-08T12:07:43.683Z,807.93
2018-02-08T12:08:43.683Z,807.97
2018-02-08T12:09:43.685Z,807.97
2018-02-08T12:10:43.687Z,808.01
2018-02-08T12:11:43.695Z,807.99
2018-02-08T12:12:43.701Z,807.99
2018-02-08T12:13:43.699Z,808.00
2018-02-08T12:14:43.704Z,808.02
2018-02-08T12:15:43.702Z,808.02
2018-02-08T12:16:43.704Z,808.04
2018-02-08T12:17:43.713Z,808.02
2018-02-08T12:18:43.717Z,808.03
2018-02-08T12:19:43.713Z,807.99
2018-02-08T12:20:43.723Z,807.95
2018-02-08T12:21:43.721Z,807.98
2018-02-08T12:22:43.729Z,807.93
2018-02-08T12:23:43.725Z,807.98
2018-02-08T12:24:43.735Z,807.99
2018-02-08T12:25:43.740Z,807.97
2018-02-08T12:26:43.739Z,807.97
2018-02-08T12:27:43.738Z,807.97
2018-02-08T12:28:43.747Z,808.00